Alva, Florida
Current Conditions -  °F | °C
As of 4:53 AM on Tuesday 27 Jan 2015 (Local Time) from KRSW Reporting Station
Clear Clear  
Wind Chill: 52°   Ceiling: Unl
Heat Index: 52°   Visibility: 10mi
Dew Point: 47°   Wind: 3mph
Humidity: 83%   Direction: 330°NNW
Pressure: 30.01"   Gusts: NA
Location:  26.72°N, 81.61°W
Report Text: KRSW 270953Z 33003KT 10SM CLR 11/08 A3001 RMK AO2 SLP158 T01110083
Loading
Personal Weather Stations






























Interactive Weather Map New forecast layout! Learn more

10-Day Weather Forecast

Advertisements
Track Severe Weather on mobile